Time;durP1;ratioP1;P1;durP2;ratioP2;P2;SDS_P1;SDS_P2;PMS_P1;PMS_P2;Temp;Humidity;BMP_temperature;BMP_pressure;BME280_temperature;BME280_humidity;BME280_pressure;Samples;Min_cycle;Max_cycle;Signal;HPM_P1;HPM_P2
2024/01/24 00:01:15;;;;;;;0.17;0.17;;;;;;;5.95;100.00;96828.06;5053476;28;20134;-75
2024/01/24 00:04:01;;;;;;;0.20;0.20;;;;;;;6.03;100.00;96811.88;5052031;28;20461;-76
2024/01/24 00:06:46;;;;;;;0.17;0.17;;;;;;;6.01;100.00;96779.41;5053599;28;20048;-77
2024/01/24 00:09:33;;;;;;;0.20;0.20;;;;;;;6.06;100.00;96784.06;5051607;28;20044;-75
2024/01/24 00:12:19;;;;;;;0.20;0.20;;;;;;;6.07;100.00;96777.72;5039544;28;20405;-75
2024/01/24 00:15:05;;;;;;;0.15;0.15;;;;;;;6.08;100.00;96780.19;5054083;28;20056;-75
2024/01/24 00:17:52;;;;;;;0.10;0.10;;;;;;;6.11;100.00;96789.56;5050016;28;20045;-76
2024/01/24 00:20:37;;;;;;;0.10;0.10;;;;;;;6.10;100.00;96783.44;5053527;28;20578;-73
2024/01/24 00:23:24;;;;;;;0.20;0.20;;;;;;;6.15;100.00;96777.50;5030180;28;20044;-73
2024/01/24 00:26:10;;;;;;;0.20;0.20;;;;;;;6.18;100.00;96760.31;5053732;28;20454;-75
2024/01/24 00:28:56;;;;;;;0.20;0.20;;;;;;;6.19;100.00;96759.28;5052184;28;20044;-76
2024/01/24 00:31:43;;;;;;;0.20;0.20;;;;;;;6.24;100.00;96752.31;5052417;28;20541;-77
2024/01/24 00:34:28;;;;;;;0.20;0.20;;;;;;;6.23;100.00;96739.25;5044019;28;20036;-76
2024/01/24 00:37:15;;;;;;;0.20;0.20;;;;;;;6.26;100.00;96781.31;5052451;28;20115;-76
2024/01/24 00:40:02;;;;;;;0.10;0.10;;;;;;;6.29;100.00;96744.50;5051920;28;20571;-76
2024/01/24 00:42:48;;;;;;;0.10;0.10;;;;;;;6.29;100.00;96736.50;5050177;28;20040;-75
2024/01/24 00:45:34;;;;;;;0.20;0.20;;;;;;;6.32;100.00;96717.50;5052296;28;20047;-78
2024/01/24 00:48:20;;;;;;;0.10;0.10;;;;;;;6.36;100.00;96715.22;5051745;28;20102;-77
2024/01/24 00:51:06;;;;;;;0.10;0.10;;;;;;;6.38;100.00;96721.13;5051269;28;20041;-75
2024/01/24 00:53:52;;;;;;;0.10;0.10;;;;;;;6.38;100.00;96715.81;5034024;28;20028;-78
2024/01/24 00:56:40;;;;;;;0.17;0.17;;;;;;;6.43;100.00;96714.13;5052142;28;20361;-77
2024/01/24 00:59:25;;;;;;;0.10;0.10;;;;;;;6.47;100.00;96729.66;5052031;28;20130;-79
2024/01/24 01:02:11;;;;;;;0.20;0.20;;;;;;;6.48;100.00;96726.78;5051590;28;20257;-75
2024/01/24 01:05:05;;;;;;;0.20;0.20;;;;;;;6.50;100.00;96713.28;5036863;28;20437;-75
2024/01/24 01:07:51;;;;;;;0.10;0.10;;;;;;;6.57;100.00;96740.63;5050819;28;20097;-77
2024/01/24 01:10:37;;;;;;;0.20;0.20;;;;;;;6.62;100.00;96722.19;5052601;28;20132;-74
2024/01/24 01:13:23;;;;;;;0.10;0.10;;;;;;;6.64;100.00;96722.78;5044177;28;20549;-75
2024/01/24 01:16:09;;;;;;;0.20;0.20;;;;;;;6.66;100.00;96726.03;5033690;28;20037;-77
2024/01/24 01:18:55;;;;;;;0.10;0.10;;;;;;;6.64;100.00;96710.28;5031095;28;20037;-77
2024/01/24 01:21:41;;;;;;;0.20;0.20;;;;;;;6.67;100.00;96704.53;5030486;28;20513;-78
2024/01/24 01:24:27;;;;;;;0.10;0.10;;;;;;;6.72;100.00;96717.19;5033240;28;20049;-75
2024/01/24 01:27:13;;;;;;;0.20;0.20;;;;;;;6.75;100.00;96708.75;5033948;28;20533;-74
2024/01/24 01:30:01;;;;;;;0.10;0.10;;;;;;;6.72;100.00;96700.41;5019034;28;20490;-74
2024/01/24 01:32:47;;;;;;;0.20;0.20;;;;;;;6.76;100.00;96715.72;5028279;28;20052;-76
2024/01/24 01:35:33;;;;;;;0.20;0.20;;;;;;;6.74;100.00;96688.53;5030493;28;20178;-75
2024/01/24 01:38:19;;;;;;;0.20;0.20;;;;;;;6.79;100.00;96696.66;5029864;28;20041;-78
2024/01/24 01:41:05;;;;;;;0.10;0.10;;;;;;;6.82;100.00;96696.22;5032903;28;20041;-76
2024/01/24 01:43:50;;;;;;;0.20;0.20;;;;;;;6.82;100.00;96688.25;5032118;28;20045;-74
2024/01/24 01:46:37;;;;;;;0.20;0.20;;;;;;;6.84;100.00;96680.03;5034019;28;20473;-74
2024/01/24 01:49:23;;;;;;;0.20;0.20;;;;;;;6.82;100.00;96674.13;5030718;28;20049;-76
2024/01/24 01:52:10;;;;;;;0.20;0.20;;;;;;;6.88;100.00;96686.56;5030733;28;20322;-75
2024/01/24 01:54:55;;;;;;;0.20;0.20;;;;;;;6.86;100.00;96684.13;5032137;28;20048;-77
2024/01/24 01:57:43;;;;;;;0.20;0.20;;;;;;;6.88;100.00;96694.53;5030045;28;20453;-76
2024/01/24 02:00:30;;;;;;;0.20;0.20;;;;;;;6.90;100.00;96685.31;5030279;28;20060;-76
2024/01/24 02:03:16;;;;;;;0.20;0.20;;;;;;;6.92;100.00;96693.88;5030301;28;20482;-77
2024/01/24 02:06:02;;;;;;;0.20;0.20;;;;;;;6.95;100.00;96682.00;5031966;28;20330;-75
2024/01/24 02:08:48;;;;;;;0.10;0.10;;;;;;;6.96;100.00;96670.31;5032920;28;20254;-76
2024/01/24 02:11:34;;;;;;;0.20;0.20;;;;;;;6.99;100.00;96673.34;5031882;28;20131;-76
2024/01/24 02:14:21;;;;;;;0.10;0.10;;;;;;;7.01;100.00;96672.31;5042572;28;20055;-77
2024/01/24 02:17:06;;;;;;;0.10;0.10;;;;;;;6.99;100.00;96676.00;5048947;28;20127;-76
2024/01/24 02:19:52;;;;;;;0.20;0.20;;;;;;;7.05;100.00;96679.63;5052630;28;20036;-75
2024/01/24 02:22:38;;;;;;;0.10;0.10;;;;;;;7.07;100.00;96663.44;5037620;28;20036;-74
2024/01/24 02:25:24;;;;;;;0.20;0.20;;;;;;;7.06;100.00;96649.31;5053790;28;20075;-77
2024/01/24 02:28:10;;;;;;;0.13;0.13;;;;;;;7.11;100.00;96668.09;5049878;28;20043;-77
2024/01/24 02:30:55;;;;;;;0.20;0.20;;;;;;;7.10;100.00;96639.06;5050266;28;20045;-75
2024/01/24 02:33:41;;;;;;;0.20;0.20;;;;;;;7.16;100.00;96656.78;5050878;28;20047;-77
2024/01/24 02:36:27;;;;;;;0.10;0.10;;;;;;;7.16;100.00;96659.44;5050164;28;20040;-75
2024/01/24 02:39:13;;;;;;;0.20;0.20;;;;;;;7.17;100.00;96653.13;5050304;28;20143;-76
2024/01/24 02:41:59;;;;;;;0.20;0.20;;;;;;;7.21;100.00;96630.31;5050929;28;20052;-76
2024/01/24 02:44:44;;;;;;;0.20;0.20;;;;;;;7.21;100.00;96628.47;5050752;28;20045;-76
2024/01/24 02:47:30;;;;;;;0.20;0.20;;;;;;;7.22;100.00;96611.47;5049445;28;20053;-78
2024/01/24 02:50:16;;;;;;;0.10;0.10;;;;;;;7.27;100.00;96629.44;5030978;28;20059;-76
2024/01/24 02:53:02;;;;;;;0.20;0.20;;;;;;;7.28;100.00;96636.38;5051276;28;20770;-76
2024/01/24 02:55:48;;;;;;;0.20;0.20;;;;;;;7.25;100.00;96632.34;5051752;28;20036;-74
2024/01/24 02:58:33;;;;;;;0.20;0.20;;;;;;;7.27;100.00;96624.13;5048680;28;20716;-74
2024/01/24 03:01:20;;;;;;;0.20;0.20;;;;;;;7.33;100.00;96633.88;5049740;28;20272;-76
2024/01/24 03:04:07;;;;;;;0.10;0.10;;;;;;;7.34;100.00;96618.72;5049565;28;20456;-75
2024/01/24 03:06:55;;;;;;;0.20;0.20;;;;;;;7.37;100.00;96602.28;5048397;28;20551;-76
2024/01/24 03:09:41;;;;;;;0.20;0.20;;;;;;;7.38;100.00;96623.34;5050577;28;20307;-78
2024/01/24 03:12:26;;;;;;;0.20;0.20;;;;;;;7.36;100.00;96614.78;5050373;28;20720;-78
2024/01/24 03:15:12;;;;;;;0.10;0.10;;;;;;;7.36;100.00;96614.78;5049706;28;20692;-78
2024/01/24 03:17:58;;;;;;;0.20;0.20;;;;;;;7.36;100.00;96620.09;5051863;28;20066;-77
2024/01/24 03:20:44;;;;;;;0.20;0.20;;;;;;;7.35;100.00;96607.03;5053406;28;20060;-77
2024/01/24 03:23:30;;;;;;;0.10;0.10;;;;;;;7.39;100.00;96614.34;5053358;28;20040;-78
2024/01/24 03:26:16;;;;;;;0.20;0.20;;;;;;;7.39;100.00;96611.69;5043625;28;20235;-75
2024/01/24 03:29:02;;;;;;;0.20;0.20;;;;;;;7.36;100.00;96608.66;5051505;28;20625;-74
2024/01/24 03:31:48;;;;;;;0.17;0.17;;;;;;;7.38;100.00;96599.38;5050072;28;20425;-75
2024/01/24 03:34:34;;;;;;;0.20;0.20;;;;;;;7.39;100.00;96595.72;5037737;28;20059;-76
2024/01/24 03:37:19;;;;;;;0.15;0.15;;;;;;;7.40;100.00;96605.31;5052957;28;20044;-77
2024/01/24 03:40:06;;;;;;;0.10;0.10;;;;;;;7.43;100.00;96601.41;5053671;28;20051;-75
2024/01/24 03:42:52;;;;;;;0.20;0.20;;;;;;;7.47;100.00;96616.72;5050176;28;20122;-77
2024/01/24 03:45:38;;;;;;;0.20;0.20;;;;;;;7.48;100.00;96594.38;5053975;28;20512;-77
2024/01/24 03:48:24;;;;;;;0.13;0.13;;;;;;;7.49;100.00;96606.63;5052303;28;20131;-74
2024/01/24 03:51:11;;;;;;;0.20;0.20;;;;;;;7.53;100.00;96599.81;5054571;28;20120;-74
2024/01/24 03:53:57;;;;;;;0.15;0.15;;;;;;;7.55;100.00;96594.28;5053219;28;20759;-75
2024/01/24 03:56:43;;;;;;;0.20;0.20;;;;;;;7.59;100.00;96590.09;5054507;28;20044;-77
2024/01/24 03:59:28;;;;;;;0.20;0.20;;;;;;;7.60;100.00;96565.09;5050851;28;20053;-75
2024/01/24 04:02:14;;;;;;;0.20;0.20;;;;;;;7.58;100.00;96580.50;5034816;28;20056;-78
2024/01/24 04:05:00;;;;;;;0.20;0.20;;;;;;;7.66;100.00;96579.38;5048882;28;20241;-76
2024/01/24 04:07:48;;;;;;;0.17;0.17;;;;;;;7.66;100.00;96582.03;5051340;28;20492;-75
2024/01/24 04:10:34;;;;;;;0.17;0.17;;;;;;;7.70;100.00;96569.88;5052684;28;20071;-77
2024/01/24 04:13:20;;;;;;;0.20;0.20;;;;;;;7.74;100.00;96560.41;5052505;28;20048;-75
2024/01/24 04:16:06;;;;;;;0.15;0.15;;;;;;;7.77;100.00;96605.22;5051381;28;20053;-78
2024/01/24 04:18:52;;;;;;;0.20;0.20;;;;;;;7.82;100.00;96581.38;5050143;28;20037;-76
2024/01/24 04:21:44;;;;;;;0.20;0.20;;;;;;;7.86;100.00;96568.41;5051265;28;20961;-75
2024/01/24 04:24:30;;;;;;;0.17;0.17;;;;;;;7.88;100.00;96561.03;5050463;28;20044;-75
2024/01/24 04:27:16;;;;;;;0.20;0.20;;;;;;;7.89;100.00;96578.63;5049566;28;20049;-76
2024/01/24 04:30:02;;;;;;;0.20;0.20;;;;;;;7.91;100.00;96582.69;5050474;28;20055;-77
2024/01/24 04:32:48;;;;;;;0.20;0.20;;;;;;;7.95;100.00;96572.38;5048318;28;20114;-77
2024/01/24 04:35:34;;;;;;;0.10;0.10;;;;;;;7.95;100.00;96551.88;5050684;28;20048;-75
2024/01/24 04:38:20;;;;;;;0.10;0.10;;;;;;;8.01;100.00;96566.13;5035607;28;20515;-77
2024/01/24 04:41:08;;;;;;;0.20;0.20;;;;;;;8.02;100.00;96563.25;5050041;28;20606;-77
2024/01/24 04:43:54;;;;;;;0.20;0.20;;;;;;;8.04;100.00;96579.00;5047708;28;20033;-76
2024/01/24 04:46:40;;;;;;;0.20;0.20;;;;;;;8.06;100.00;96574.25;5052716;28;20048;-78
2024/01/24 04:49:25;;;;;;;0.25;0.20;;;;;;;8.12;100.00;96567.19;5051775;28;20133;-75
2024/01/24 04:52:13;;;;;;;0.10;0.10;;;;;;;8.14;100.00;96565.09;5037164;28;20337;-75
2024/01/24 04:54:59;;;;;;;0.20;0.20;;;;;;;8.16;100.00;96568.34;5051072;28;20051;-74
2024/01/24 04:57:45;;;;;;;0.10;0.10;;;;;;;8.21;100.00;96550.63;5035036;28;20484;-74
2024/01/24 05:00:31;;;;;;;0.10;0.10;;;;;;;8.18;100.00;96559.09;5051279;28;20044;-75
2024/01/24 05:03:16;;;;;;;0.10;0.10;;;;;;;8.20;100.00;96553.53;5050532;28;20060;-75
2024/01/24 05:06:03;;;;;;;0.10;0.10;;;;;;;8.23;100.00;96569.06;5054594;28;20032;-75
2024/01/24 05:08:49;;;;;;;0.10;0.10;;;;;;;8.26;100.00;96552.63;5055230;28;20460;-75
2024/01/24 05:11:34;;;;;;;0.10;0.10;;;;;;;8.31;100.00;96537.53;5053890;28;20413;-76
2024/01/24 05:14:20;;;;;;;0.13;0.13;;;;;;;8.29;100.00;96550.28;5056065;28;20513;-76
2024/01/24 05:17:06;;;;;;;0.13;0.13;;;;;;;8.34;100.00;96565.59;5052337;28;20825;-75
2024/01/24 05:19:52;;;;;;;0.10;0.10;;;;;;;8.37;100.00;96554.50;5052516;28;20040;-76
2024/01/24 05:22:39;;;;;;;0.20;0.20;;;;;;;8.35;100.00;96538.72;5038694;28;20044;-77
2024/01/24 05:25:25;;;;;;;0.10;0.10;;;;;;;8.42;100.00;96543.94;5052165;28;20072;-76
2024/01/24 05:28:11;;;;;;;0.10;0.10;;;;;;;8.38;100.00;96527.59;5041032;28;20655;-78
2024/01/24 05:30:57;;;;;;;0.20;0.20;;;;;;;8.41;100.00;96539.66;5051698;28;20037;-75
2024/01/24 05:33:43;;;;;;;0.10;0.10;;;;;;;8.40;100.00;96554.00;5052330;28;20044;-78
2024/01/24 05:36:29;;;;;;;0.20;0.20;;;;;;;8.36;100.00;96552.88;5051694;28;20090;-77
2024/01/24 05:39:15;;;;;;;0.20;0.20;;;;;;;8.33;100.00;96570.13;5050776;28;20454;-73
2024/01/24 05:42:01;;;;;;;0.20;0.20;;;;;;;8.32;100.00;96571.13;5051405;28;20196;-75
2024/01/24 05:44:47;;;;;;;0.13;0.13;;;;;;;8.34;100.00;96586.94;5050562;28;20048;-75
2024/01/24 05:47:33;;;;;;;0.10;0.10;;;;;;;8.25;100.00;96581.13;5051696;28;20040;-77
2024/01/24 05:50:19;;;;;;;0.20;0.20;;;;;;;8.25;100.00;96605.13;5052898;28;20135;-75
2024/01/24 05:53:05;;;;;;;0.20;0.20;;;;;;;8.27;100.00;96592.38;5050181;28;20165;-76
2024/01/24 05:55:51;;;;;;;0.20;0.20;;;;;;;8.22;100.00;96567.44;5052181;28;20155;-76
2024/01/24 05:58:37;;;;;;;0.20;0.20;;;;;;;8.13;100.00;96569.63;5050760;28;20045;-74
2024/01/24 06:01:23;;;;;;;0.20;0.20;;;;;;;8.15;100.00;96572.88;5050936;28;20577;-74
2024/01/24 06:04:09;;;;;;;0.20;0.20;;;;;;;8.29;100.00;96590.28;5051496;28;20056;-76
2024/01/24 06:06:55;;;;;;;0.20;0.20;;;;;;;8.33;100.00;96577.31;5052438;28;20193;-76
2024/01/24 06:09:43;;;;;;;0.20;0.20;;;;;;;8.33;100.00;96574.66;5053429;28;20328;-75
2024/01/24 06:12:28;;;;;;;0.20;0.20;;;;;;;8.38;100.00;96574.78;5051983;28;20600;-74
2024/01/24 06:15:14;;;;;;;0.10;0.10;;;;;;;8.42;100.00;96538.63;5049898;28;20043;-75
2024/01/24 06:18:00;;;;;;;0.20;0.20;;;;;;;8.42;100.00;96543.94;5036077;28;20044;-74
2024/01/24 06:20:47;;;;;;;0.20;0.20;;;;;;;8.37;100.00;96543.81;5038032;28;20040;-75
2024/01/24 06:23:32;;;;;;;0.20;0.20;;;;;;;8.29;100.00;96574.28;5050637;28;20630;-77
2024/01/24 06:26:18;;;;;;;0.13;0.13;;;;;;;8.24;100.00;96589.34;5052647;28;20048;-75
2024/01/24 06:29:04;;;;;;;0.20;0.20;;;;;;;8.24;100.00;96618.66;5052121;28;20067;-73
2024/01/24 06:31:50;;;;;;;0.20;0.20;;;;;;;8.16;100.00;96643.78;5049061;28;20044;-75
2024/01/24 06:34:36;;;;;;;0.20;0.20;;;;;;;7.98;100.00;96636.69;5052153;28;20393;-74
2024/01/24 06:37:22;;;;;;;0.20;0.20;;;;;;;7.92;100.00;96650.09;5051502;28;20118;-74
2024/01/24 06:40:09;;;;;;;0.20;0.20;;;;;;;7.78;100.00;96662.78;5051743;28;20209;-74
2024/01/24 06:42:55;;;;;;;0.15;0.15;;;;;;;7.68;100.00;96689.16;5050648;28;20071;-75
2024/01/24 06:45:41;;;;;;;0.20;0.20;;;;;;;7.44;100.00;96686.38;5053484;28;20036;-76
2024/01/24 06:48:27;;;;;;;0.22;0.22;;;;;;;7.28;100.00;96688.81;5052193;28;20052;-77
2024/01/24 06:51:13;;;;;;;0.20;0.20;;;;;;;7.10;100.00;96678.97;5053484;28;20383;-76
2024/01/24 06:53:59;;;;;;;0.10;0.10;;;;;;;7.07;100.00;96650.13;5056157;28;20067;-75
2024/01/24 06:56:45;;;;;;;0.15;0.15;;;;;;;7.02;100.00;96639.34;5054852;28;20051;-78
2024/01/24 06:59:34;;;;;;;0.20;0.20;;;;;;;7.08;100.00;96657.06;5056570;28;20044;-73
2024/01/24 07:02:20;;;;;;;0.20;0.20;;;;;;;7.13;100.00;96655.38;5052634;28;20402;-77
2024/01/24 07:05:06;;;;;;;0.20;0.20;;;;;;;7.18;100.00;96679.50;5056708;28;20036;-76
2024/01/24 07:07:52;;;;;;;0.10;0.10;;;;;;;7.22;100.00;96687.84;5052444;28;20103;-76
2024/01/24 07:10:38;;;;;;;0.20;0.20;;;;;;;7.24;100.00;96701.75;5054287;28;20048;-76
2024/01/24 07:13:24;;;;;;;0.20;0.20;;;;;;;7.33;100.00;96687.13;5055257;28;20730;-76
2024/01/24 07:16:09;;;;;;;0.10;0.10;;;;;;;7.51;100.00;96718.25;5053511;28;20040;-78
2024/01/24 07:18:55;;;;;;;0.20;0.20;;;;;;;7.57;100.00;96695.25;5053435;28;20105;-74
2024/01/24 07:21:41;;;;;;;0.10;0.10;;;;;;;7.65;100.00;96717.06;5053938;28;20127;-77
2024/01/24 07:24:27;;;;;;;0.22;0.22;;;;;;;7.70;100.00;96727.03;5056546;28;20056;-74
2024/01/24 07:27:13;;;;;;;0.20;0.20;;;;;;;7.68;100.00;96739.75;5054316;28;20032;-75
2024/01/24 07:30:04;;;;;;;0.20;0.20;;;;;;;7.71;100.00;96744.66;5054548;28;20070;-76
2024/01/24 07:32:50;;;;;;;0.20;0.20;;;;;;;7.70;100.00;96754.47;5052401;28;20048;-77
2024/01/24 07:35:36;;;;;;;0.20;0.20;;;;;;;7.70;100.00;96748.34;5053838;28;20052;-73
2024/01/24 07:38:21;;;;;;;0.20;0.20;;;;;;;7.73;100.00;96756.72;5038913;28;20052;-76
2024/01/24 07:41:07;;;;;;;0.20;0.20;;;;;;;7.67;100.00;96768.25;5055382;28;20260;-75
2024/01/24 07:43:53;;;;;;;0.20;0.20;;;;;;;7.74;100.00;96770.84;5053667;28;20246;-77
2024/01/24 07:46:43;;;;;;;0.20;0.20;;;;;;;7.78;100.00;96761.34;5053953;28;20266;-76
2024/01/24 07:49:29;;;;;;;0.20;0.20;;;;;;;7.80;100.00;96777.94;5053305;28;20041;-77
2024/01/24 07:52:15;;;;;;;0.10;0.10;;;;;;;7.78;100.00;96807.47;5052309;28;20033;-75
2024/01/24 07:55:01;;;;;;;0.20;0.20;;;;;;;7.84;100.00;96781.78;5055181;28;20041;-76
2024/01/24 07:57:47;;;;;;;0.20;0.20;;;;;;;7.79;100.00;96761.16;5055208;28;20044;-76
2024/01/24 08:00:34;;;;;;;0.15;0.15;;;;;;;7.78;100.00;96793.31;5053054;28;20033;-77
2024/01/24 08:03:20;;;;;;;0.20;0.20;;;;;;;7.76;100.00;96804.19;5052308;28;20509;-78
2024/01/24 08:06:06;;;;;;;0.20;0.20;;;;;;;7.68;100.00;96806.34;5054042;28;20044;-75
2024/01/24 08:08:52;;;;;;;0.10;0.10;;;;;;;7.75;100.00;96783.13;5052852;28;20398;-77
2024/01/24 08:11:38;;;;;;;0.20;0.20;;;;;;;7.71;100.00;96801.41;5040823;28;20388;-76
2024/01/24 08:14:24;;;;;;;0.10;0.10;;;;;;;7.77;100.00;96799.69;5046944;28;20044;-75
2024/01/24 08:17:14;;;;;;;0.20;0.20;;;;;;;7.82;100.00;96813.16;5052098;28;20041;-78
2024/01/24 08:20:00;;;;;;;0.20;0.20;;;;;;;7.85;100.00;96827.88;5047378;28;20265;-77
2024/01/24 08:22:45;;;;;;;0.20;0.20;;;;;;;7.83;100.00;96839.59;5052993;28;20048;-75
2024/01/24 08:25:31;;;;;;;0.20;0.20;;;;;;;7.85;100.00;96838.53;5053291;28;20051;-74
2024/01/24 08:28:17;;;;;;;0.10;0.10;;;;;;;7.86;100.00;96827.69;5046164;28;20064;-74
2024/01/24 08:31:03;;;;;;;0.20;0.20;;;;;;;7.87;100.00;96818.66;5053189;28;20434;-76
2024/01/24 08:33:49;;;;;;;0.10;0.10;;;;;;;7.85;100.00;96820.69;5052098;28;20500;-74
2024/01/24 08:36:39;;;;;;;0.17;0.17;;;;;;;7.86;100.00;96814.38;5053528;28;20400;-75
2024/01/24 08:39:25;;;;;;;0.20;0.20;;;;;;;7.89;100.00;96839.75;5053821;28;20460;-74
2024/01/24 08:42:11;;;;;;;0.20;0.20;;;;;;;7.98;100.00;96846.41;5053819;28;20448;-77
2024/01/24 08:44:57;;;;;;;0.20;0.20;;;;;;;7.95;100.00;96830.88;5049668;28;20246;-74
2024/01/24 08:47:43;;;;;;;0.20;0.20;;;;;;;8.00;100.00;96842.47;5052258;28;20131;-75
2024/01/24 08:50:29;;;;;;;0.20;0.20;;;;;;;7.98;100.00;96825.91;5038561;28;20047;-76
2024/01/24 08:53:15;;;;;;;0.10;0.10;;;;;;;7.94;100.00;96840.72;5051873;28;20479;-77
2024/01/24 08:56:01;;;;;;;0.10;0.10;;;;;;;7.96;100.00;96846.63;5021041;28;20390;-77
2024/01/24 08:58:46;;;;;;;0.20;0.20;;;;;;;7.97;100.00;96848.25;5037484;28;20489;-76
2024/01/24 09:01:32;;;;;;;0.20;0.20;;;;;;;7.94;100.00;96870.03;5037436;28;20052;-74
2024/01/24 09:04:18;;;;;;;0.13;0.13;;;;;;;7.97;100.00;96898.06;5052127;28;20476;-74
2024/01/24 09:07:04;;;;;;;0.20;0.20;;;;;;;7.94;100.00;96883.34;5050588;28;20064;-76
2024/01/24 09:09:51;;;;;;;0.20;0.20;;;;;;;7.94;100.00;96872.69;5035017;28;20044;-76
2024/01/24 09:12:37;;;;;;;0.20;0.20;;;;;;;7.93;100.00;96880.88;5030554;28;20048;-74
2024/01/24 09:15:23;;;;;;;0.20;0.20;;;;;;;7.96;100.00;96918.59;5047544;28;20256;-76
2024/01/24 09:18:08;;;;;;;0.20;0.20;;;;;;;7.97;100.00;96925.53;5033598;28;20048;-77
2024/01/24 09:20:54;;;;;;;0.15;0.15;;;;;;;8.05;100.00;96892.44;5050471;28;20668;-77
2024/01/24 09:23:40;;;;;;;0.20;0.20;;;;;;;8.07;100.00;96901.03;5050936;28;20124;-75
2024/01/24 09:26:26;;;;;;;0.20;0.20;;;;;;;8.00;100.00;96938.41;5050408;28;20055;-77
2024/01/24 09:29:12;;;;;;;0.20;0.20;;;;;;;8.01;100.00;96907.25;5052143;28;20044;-76
2024/01/24 09:31:58;;;;;;;0.20;0.20;;;;;;;8.13;100.00;96926.81;5049689;28;20529;-76
2024/01/24 09:34:44;;;;;;;0.20;0.20;;;;;;;8.24;100.00;96911.91;5049188;28;20043;-77
2024/01/24 09:37:30;;;;;;;0.10;0.10;;;;;;;8.21;100.00;96893.72;5049439;28;20044;-78
2024/01/24 09:40:17;;;;;;;0.10;0.10;;;;;;;8.23;100.00;96907.63;5051052;28;20486;-78
2024/01/24 09:43:03;;;;;;;0.17;0.17;;;;;;;8.27;100.00;96898.97;5049311;28;20040;-77
2024/01/24 09:45:49;;;;;;;0.20;0.20;;;;;;;8.32;100.00;96901.75;5049540;28;20496;-75
2024/01/24 09:48:35;;;;;;;0.10;0.10;;;;;;;8.25;100.00;96902.88;5050251;28;20068;-76
2024/01/24 09:51:21;;;;;;;0.17;0.17;;;;;;;8.14;100.00;96923.09;5050416;28;20049;-76
2024/01/24 09:54:08;;;;;;;0.20;0.20;;;;;;;8.14;100.00;96920.44;5048659;28;20033;-78
2024/01/24 09:56:54;;;;;;;0.20;0.20;;;;;;;8.20;100.00;96924.06;5049681;28;20587;-78
2024/01/24 09:59:40;;;;;;;0.10;0.10;;;;;;;8.29;100.00;96930.75;5052358;28;20032;-78
2024/01/24 10:02:27;;;;;;;0.20;0.20;;;;;;;8.25;100.00;96924.22;5050362;28;20045;-78
2024/01/24 10:05:16;;;;;;;0.10;0.10;;;;;;;8.26;100.00;96913.34;5051730;28;20467;-77
2024/01/24 10:23:16;;;;;;;0.30;0.30;;;;;;;8.27;100.00;96975.47;5063742;27;1301136;-74
2024/01/24 10:26:02;;;;;;;0.20;0.20;;;;;;;8.23;100.00;96969.75;5091757;28;20061;-74
2024/01/24 10:28:49;;;;;;;0.20;0.20;;;;;;;8.47;100.00;97001.94;5091861;28;20093;-74
2024/01/24 10:31:35;;;;;;;0.40;0.30;;;;;;;8.55;100.00;97009.66;5068540;27;20041;-75
2024/01/24 10:34:25;;;;;;;0.20;0.20;;;;;;;8.78;100.00;96990.31;5022435;28;20159;-75
2024/01/24 10:37:11;;;;;;;0.25;0.25;;;;;;;8.84;100.00;96997.44;5052454;28;20051;-75
2024/01/24 10:39:58;;;;;;;0.20;0.20;;;;;;;8.51;100.00;96987.97;5054533;28;20122;-75
2024/01/24 10:42:48;;;;;;;0.20;0.20;;;;;;;8.40;100.00;96986.03;5048525;28;20691;-74
2024/01/24 10:45:35;;;;;;;0.20;0.20;;;;;;;8.36;100.00;96990.19;5052834;28;20063;-74
2024/01/24 10:48:21;;;;;;;0.20;0.20;;;;;;;8.36;100.00;96969.66;5052049;28;20044;-76
2024/01/24 10:51:07;;;;;;;0.20;0.20;;;;;;;8.30;100.00;96975.84;5054154;28;20123;-75
2024/01/24 10:53:54;;;;;;;0.28;0.28;;;;;;;8.36;100.00;96982.19;5053850;28;20044;-76
2024/01/24 10:56:43;;;;;;;0.28;0.22;;;;;;;8.44;100.00;97008.56;5051860;28;20051;-74
2024/01/24 10:59:31;;;;;;;0.20;0.20;;;;;;;8.71;100.00;97002.91;5054192;28;20063;-75
2024/01/24 11:02:18;;;;;;;0.20;0.20;;;;;;;8.90;100.00;96985.88;5047382;28;20071;-76
2024/01/24 11:05:07;;;;;;;0.30;0.30;;;;;;;8.78;100.00;96990.31;5050479;28;20040;-74
2024/01/24 11:08:08;;;;;;;0.20;0.20;;;;;;;8.76;100.00;96997.72;5052896;28;20127;-74
2024/01/24 11:10:58;;;;;;;0.40;0.40;;;;;;;9.37;100.00;97012.75;5048404;28;20041;-75
2024/01/24 11:13:45;;;;;;;0.22;0.22;;;;;;;8.85;100.00;96999.06;5051008;28;20048;-76
2024/01/24 11:16:37;;;;;;;0.20;0.20;;;;;;;8.53;100.00;97007.22;5050463;28;20045;-75
2024/01/24 11:19:24;;;;;;;0.20;0.20;;;;;;;8.35;100.00;96983.22;5052557;28;20461;-75
2024/01/24 11:22:11;;;;;;;0.20;0.20;;;;;;;8.31;100.00;96992.66;5048717;28;20456;-75
2024/01/24 11:24:59;;;;;;;0.20;0.20;;;;;;;8.28;100.00;97003.78;5036172;28;20423;-76
2024/01/24 11:27:46;;;;;;;0.20;0.20;;;;;;;8.33;100.00;97023.41;5040165;28;20044;-75
2024/01/24 11:30:41;;;;;;;0.20;0.20;;;;;;;8.39;100.00;97019.06;5036266;28;20141;-78
2024/01/24 11:33:27;;;;;;;0.25;0.25;;;;;;;8.32;100.00;97042.28;4998238;28;20048;-75
2024/01/24 11:36:13;;;;;;;0.30;0.30;;;;;;;8.23;100.00;97032.94;5030396;28;20487;-75
2024/01/24 11:38:59;;;;;;;0.20;0.20;;;;;;;8.21;100.00;97021.69;5014385;28;20130;-78
2024/01/24 11:41:45;;;;;;;0.20;0.20;;;;;;;8.13;100.00;97035.28;5013843;28;20056;-76
2024/01/24 11:44:31;;;;;;;0.22;0.22;;;;;;;8.08;100.00;97057.25;5013639;28;20057;-77
2024/01/24 11:47:16;;;;;;;0.13;0.13;;;;;;;8.05;100.00;97034.53;5019014;28;20048;-76
2024/01/24 11:50:03;;;;;;;0.20;0.20;;;;;;;8.05;100.00;97039.84;5014944;28;20060;-76
2024/01/24 11:52:49;;;;;;;0.28;0.22;;;;;;;8.00;100.00;97074.34;5011312;28;20072;-75
2024/01/24 11:55:35;;;;;;;0.30;0.30;;;;;;;8.07;100.00;97072.44;5016517;28;20040;-77
2024/01/24 11:58:26;;;;;;;0.30;0.30;;;;;;;8.11;100.00;97046.19;5009387;28;20068;-77
2024/01/24 12:01:12;;;;;;;0.20;0.20;;;;;;;8.19;100.00;97067.22;5015018;28;20052;-75
2024/01/24 12:03:58;;;;;;;0.20;0.20;;;;;;;8.29;100.00;97069.38;5018674;28;20364;-75
2024/01/24 12:06:43;;;;;;;0.20;0.20;;;;;;;8.22;100.00;97065.97;5015644;28;20399;-75
2024/01/24 12:09:29;;;;;;;0.30;0.30;;;;;;;8.06;100.00;97096.66;5013630;28;20491;-74
2024/01/24 12:12:15;;;;;;;0.32;0.30;;;;;;;8.05;100.00;97109.16;5029770;28;20120;-76
2024/01/24 12:15:02;;;;;;;0.20;0.20;;;;;;;8.09;100.00;97134.38;5015778;28;20379;-76
2024/01/24 12:17:48;;;;;;;0.20;0.20;;;;;;;8.07;100.00;97101.75;5014480;28;20362;-74
2024/01/24 12:20:35;;;;;;;0.30;0.28;;;;;;;8.17;100.00;97092.44;5030642;28;20068;-76
2024/01/24 12:23:21;;;;;;;0.20;0.20;;;;;;;8.35;100.00;97096.03;5008345;28;20579;-74
2024/01/24 12:26:07;;;;;;;0.20;0.20;;;;;;;8.38;100.00;97097.44;5015906;28;20045;-74
2024/01/24 12:28:53;;;;;;;0.20;0.20;;;;;;;8.40;100.00;97102.53;5015961;28;20042;-75
2024/01/24 12:31:42;;;;;;;0.40;0.30;;;;;;;8.30;100.00;97092.34;5026463;28;20052;-78
2024/01/24 12:34:31;;;;;;;0.28;0.28;;;;;;;8.56;100.00;97102.81;5009446;28;20132;-77
2024/01/24 12:37:21;;;;;;;0.22;0.20;;;;;;;8.57;100.00;97108.97;5014374;28;20106;-75
2024/01/24 12:40:10;;;;;;;0.20;0.20;;;;;;;8.33;100.00;97113.25;5018223;28;20600;-77
2024/01/24 12:42:58;;;;;;;0.25;0.25;;;;;;;8.12;100.00;97113.63;5031132;28;20642;-77
2024/01/24 12:45:44;;;;;;;0.20;0.20;;;;;;;8.29;100.00;97096.88;5034382;28;20045;-75
2024/01/24 12:48:29;;;;;;;0.25;0.25;;;;;;;8.32;100.00;97107.09;5021850;28;20078;-74
2024/01/24 12:51:15;;;;;;;0.30;0.30;;;;;;;8.21;100.00;97105.13;5037972;28;20437;-75
2024/01/24 12:54:01;;;;;;;0.30;0.30;;;;;;;8.16;100.00;97120.97;5023023;28;20222;-75
2024/01/24 12:56:47;;;;;;;0.28;0.28;;;;;;;8.19;100.00;97130.41;5034059;28;20053;-77
2024/01/24 12:59:36;;;;;;;0.20;0.20;;;;;;;8.24;100.00;97133.22;5035901;28;20044;-76
2024/01/24 13:02:23;;;;;;;0.30;0.30;;;;;;;9.61;100.00;97134.69;5034904;28;20301;-77
2024/01/24 13:05:09;;;;;;;0.30;0.25;;;;;;;9.25;100.00;97129.38;5037374;28;20041;-76
2024/01/24 13:07:55;;;;;;;0.30;0.30;;;;;;;9.62;100.00;97117.63;5037209;28;20044;-74
2024/01/24 13:10:44;;;;;;;0.20;0.20;;;;;;;9.69;100.00;97165.63;5037233;28;20044;-75
2024/01/24 13:13:30;;;;;;;0.30;0.30;;;;;;;9.82;100.00;97128.06;5021467;28;20432;-73
2024/01/24 13:16:16;;;;;;;0.20;0.20;;;;;;;10.46;100.00;97128.34;5023795;28;20525;-74
2024/01/24 13:19:02;;;;;;;0.30;0.25;;;;;;;9.69;100.00;97134.38;5039351;28;20048;-76